sensor_id;sensor_type;location;lat;lon;timestamp;P1;durP1;ratioP1;P2;durP2;ratioP2
8048;SDS011;20935;42.660;23.342;2023-07-29T00:02:31;4.63;;;4.18;;
8048;SDS011;20935;42.660;23.342;2023-07-29T00:05:17;4.53;;;3.63;;
8048;SDS011;20935;42.660;23.342;2023-07-29T00:08:02;4.30;;;3.88;;
8048;SDS011;20935;42.660;23.342;2023-07-29T00:10:49;4.20;;;3.80;;
8048;SDS011;20935;42.660;23.342;2023-07-29T00:13:34;4.10;;;3.67;;
8048;SDS011;20935;42.660;23.342;2023-07-29T00:16:20;4.85;;;4.38;;
8048;SDS011;20935;42.660;23.342;2023-07-29T00:19:06;4.32;;;3.92;;
8048;SDS011;20935;42.660;23.342;2023-07-29T00:21:51;4.20;;;3.80;;
8048;SDS011;20935;42.660;23.342;2023-07-29T00:24:37;3.88;;;3.58;;
8048;SDS011;20935;42.660;23.342;2023-07-29T00:27:23;4.35;;;3.95;;
8048;SDS011;20935;42.660;23.342;2023-07-29T00:30:09;4.35;;;3.92;;
8048;SDS011;20935;42.660;23.342;2023-07-29T00:32:55;4.13;;;3.72;;
8048;SDS011;20935;42.660;23.342;2023-07-29T00:35:40;4.75;;;4.25;;
8048;SDS011;20935;42.660;23.342;2023-07-29T00:38:26;4.18;;;3.85;;
8048;SDS011;20935;42.660;23.342;2023-07-29T00:41:11;4.85;;;4.07;;
8048;SDS011;20935;42.660;23.342;2023-07-29T00:44:00;3.85;;;3.55;;
8048;SDS011;20935;42.660;23.342;2023-07-29T00:46:46;4.43;;;4.03;;
8048;SDS011;20935;42.660;23.342;2023-07-29T00:49:32;4.53;;;4.07;;
8048;SDS011;20935;42.660;23.342;2023-07-29T00:52:18;4.20;;;3.83;;
8048;SDS011;20935;42.660;23.342;2023-07-29T00:55:03;4.25;;;3.85;;
8048;SDS011;20935;42.660;23.342;2023-07-29T00:57:49;3.83;;;3.53;;
8048;SDS011;20935;42.660;23.342;2023-07-29T01:00:39;4.25;;;3.85;;
8048;SDS011;20935;42.660;23.342;2023-07-29T01:03:25;4.18;;;3.78;;
8048;SDS011;20935;42.660;23.342;2023-07-29T01:06:12;4.55;;;4.15;;
8048;SDS011;20935;42.660;23.342;2023-07-29T01:09:04;4.30;;;3.90;;
8048;SDS011;20935;42.660;23.342;2023-07-29T01:11:55;3.95;;;3.55;;
8048;SDS011;20935;42.660;23.342;2023-07-29T01:14:46;3.90;;;3.60;;
8048;SDS011;20935;42.660;23.342;2023-07-29T01:17:42;5.57;;;4.15;;
8048;SDS011;20935;42.660;23.342;2023-07-29T01:20:32;4.68;;;4.18;;
8048;SDS011;20935;42.660;23.342;2023-07-29T01:23:23;3.72;;;3.42;;
8048;SDS011;20935;42.660;23.342;2023-07-29T01:26:09;4.22;;;3.83;;
8048;SDS011;20935;42.660;23.342;2023-07-29T01:28:55;4.75;;;4.15;;
8048;SDS011;20935;42.660;23.342;2023-07-29T01:31:43;4.22;;;3.70;;
8048;SDS011;20935;42.660;23.342;2023-07-29T01:34:30;3.83;;;3.50;;
8048;SDS011;20935;42.660;23.342;2023-07-29T01:37:22;4.35;;;3.90;;
8048;SDS011;20935;42.660;23.342;2023-07-29T01:40:12;3.80;;;3.35;;
8048;SDS011;20935;42.660;23.342;2023-07-29T01:42:59;4.40;;;4.00;;
8048;SDS011;20935;42.660;23.342;2023-07-29T01:45:44;4.30;;;3.90;;
8048;SDS011;20935;42.660;23.342;2023-07-29T01:48:30;3.90;;;3.60;;
8048;SDS011;20935;42.660;23.342;2023-07-29T01:51:16;4.53;;;4.13;;
8048;SDS011;20935;42.660;23.342;2023-07-29T01:54:01;4.20;;;3.80;;
8048;SDS011;20935;42.660;23.342;2023-07-29T01:56:48;4.15;;;3.75;;
8048;SDS011;20935;42.660;23.342;2023-07-29T01:59:35;5.43;;;3.80;;
8048;SDS011;20935;42.660;23.342;2023-07-29T02:02:20;4.22;;;3.80;;
8048;SDS011;20935;42.660;23.342;2023-07-29T02:05:06;4.38;;;3.97;;
8048;SDS011;20935;42.660;23.342;2023-07-29T02:07:51;3.97;;;3.67;;
8048;SDS011;20935;42.660;23.342;2023-07-29T02:10:37;4.13;;;3.50;;
8048;SDS011;20935;42.660;23.342;2023-07-29T02:13:24;3.60;;;3.30;;
8048;SDS011;20935;42.660;23.342;2023-07-29T02:16:09;4.10;;;3.70;;
8048;SDS011;20935;42.660;23.342;2023-07-29T02:18:55;3.70;;;3.35;;
8048;SDS011;20935;42.660;23.342;2023-07-29T02:21:40;4.10;;;3.70;;
8048;SDS011;20935;42.660;23.342;2023-07-29T02:24:25;3.65;;;3.20;;
8048;SDS011;20935;42.660;23.342;2023-07-29T02:27:11;4.07;;;3.70;;
8048;SDS011;20935;42.660;23.342;2023-07-29T02:29:58;3.80;;;3.38;;
8048;SDS011;20935;42.660;23.342;2023-07-29T02:32:43;4.38;;;3.97;;
8048;SDS011;20935;42.660;23.342;2023-07-29T02:35:29;3.75;;;3.45;;
8048;SDS011;20935;42.660;23.342;2023-07-29T02:38:14;3.95;;;3.55;;
8048;SDS011;20935;42.660;23.342;2023-07-29T02:41:00;4.00;;;3.60;;
8048;SDS011;20935;42.660;23.342;2023-07-29T02:43:48;3.97;;;3.65;;
8048;SDS011;20935;42.660;23.342;2023-07-29T02:46:35;3.60;;;3.30;;
8048;SDS011;20935;42.660;23.342;2023-07-29T02:49:21;3.63;;;3.33;;
8048;SDS011;20935;42.660;23.342;2023-07-29T02:52:07;3.60;;;3.30;;
8048;SDS011;20935;42.660;23.342;2023-07-29T02:54:53;3.80;;;3.50;;
8048;SDS011;20935;42.660;23.342;2023-07-29T02:57:38;3.78;;;3.22;;
8048;SDS011;20935;42.660;23.342;2023-07-29T03:00:23;3.83;;;3.35;;
8048;SDS011;20935;42.660;23.342;2023-07-29T03:03:10;3.90;;;3.30;;
8048;SDS011;20935;42.660;23.342;2023-07-29T03:05:59;3.60;;;3.30;;
8048;SDS011;20935;42.660;23.342;2023-07-29T03:08:45;3.40;;;3.10;;
8048;SDS011;20935;42.660;23.342;2023-07-29T03:11:30;3.65;;;3.13;;
8048;SDS011;20935;42.660;23.342;2023-07-29T03:14:16;3.28;;;2.95;;
8048;SDS011;20935;42.660;23.342;2023-07-29T03:17:02;3.50;;;3.20;;
8048;SDS011;20935;42.660;23.342;2023-07-29T03:19:50;3.47;;;3.17;;
8048;SDS011;20935;42.660;23.342;2023-07-29T03:22:37;4.07;;;3.42;;
8048;SDS011;20935;42.660;23.342;2023-07-29T03:25:22;3.33;;;3.03;;
8048;SDS011;20935;42.660;23.342;2023-07-29T03:28:07;3.75;;;3.45;;
8048;SDS011;20935;42.660;23.342;2023-07-29T03:30:53;3.30;;;3.00;;
8048;SDS011;20935;42.660;23.342;2023-07-29T03:33:38;4.00;;;3.38;;
8048;SDS011;20935;42.660;23.342;2023-07-29T03:36:25;3.08;;;2.72;;
8048;SDS011;20935;42.660;23.342;2023-07-29T03:39:10;3.60;;;3.30;;
8048;SDS011;20935;42.660;23.342;2023-07-29T03:41:56;3.42;;;3.13;;
8048;SDS011;20935;42.660;23.342;2023-07-29T03:44:41;3.08;;;2.85;;
8048;SDS011;20935;42.660;23.342;2023-07-29T03:47:27;3.33;;;3.00;;
8048;SDS011;20935;42.660;23.342;2023-07-29T03:50:12;3.45;;;3.15;;
8048;SDS011;20935;42.660;23.342;2023-07-29T03:52:59;3.22;;;2.92;;
8048;SDS011;20935;42.660;23.342;2023-07-29T03:55:45;3.33;;;3.03;;
8048;SDS011;20935;42.660;23.342;2023-07-29T03:58:30;3.28;;;2.97;;
8048;SDS011;20935;42.660;23.342;2023-07-29T04:01:16;2.60;;;2.40;;
8048;SDS011;20935;42.660;23.342;2023-07-29T04:04:01;3.30;;;3.03;;
8048;SDS011;20935;42.660;23.342;2023-07-29T04:06:47;3.10;;;2.80;;
8048;SDS011;20935;42.660;23.342;2023-07-29T04:09:34;3.10;;;2.80;;
8048;SDS011;20935;42.660;23.342;2023-07-29T04:12:19;3.20;;;2.85;;
8048;SDS011;20935;42.660;23.342;2023-07-29T04:15:05;3.88;;;2.65;;
8048;SDS011;20935;42.660;23.342;2023-07-29T04:17:52;2.90;;;2.60;;
8048;SDS011;20935;42.660;23.342;2023-07-29T04:20:37;3.05;;;2.83;;
8048;SDS011;20935;42.660;23.342;2023-07-29T04:23:23;2.92;;;2.72;;
8048;SDS011;20935;42.660;23.342;2023-07-29T04:26:09;2.90;;;2.70;;
8048;SDS011;20935;42.660;23.342;2023-07-29T04:28:55;2.72;;;2.53;;
8048;SDS011;20935;42.660;23.342;2023-07-29T04:31:42;3.50;;;3.17;;
8048;SDS011;20935;42.660;23.342;2023-07-29T04:34:27;3.40;;;3.10;;
8048;SDS011;20935;42.660;23.342;2023-07-29T04:37:13;3.00;;;2.72;;
8048;SDS011;20935;42.660;23.342;2023-07-29T04:39:58;4.25;;;2.80;;
8048;SDS011;20935;42.660;23.342;2023-07-29T04:42:45;3.47;;;3.17;;
8048;SDS011;20935;42.660;23.342;2023-07-29T04:45:31;2.70;;;2.50;;
8048;SDS011;20935;42.660;23.342;2023-07-29T04:48:16;2.70;;;2.50;;
8048;SDS011;20935;42.660;23.342;2023-07-29T04:51:01;2.88;;;2.60;;
8048;SDS011;20935;42.660;23.342;2023-07-29T04:53:47;3.13;;;2.88;;
8048;SDS011;20935;42.660;23.342;2023-07-29T04:56:32;2.83;;;2.63;;
8048;SDS011;20935;42.660;23.342;2023-07-29T04:59:19;2.83;;;2.63;;
8048;SDS011;20935;42.660;23.342;2023-07-29T05:02:05;2.58;;;2.38;;
8048;SDS011;20935;42.660;23.342;2023-07-29T05:04:50;3.83;;;2.85;;
8048;SDS011;20935;42.660;23.342;2023-07-29T05:07:36;3.20;;;2.88;;
8048;SDS011;20935;42.660;23.342;2023-07-29T05:10:21;3.13;;;2.83;;
8048;SDS011;20935;42.660;23.342;2023-07-29T05:13:07;2.83;;;2.63;;
8048;SDS011;20935;42.660;23.342;2023-07-29T05:15:53;3.00;;;2.70;;
8048;SDS011;20935;42.660;23.342;2023-07-29T05:18:40;3.38;;;3.03;;
8048;SDS011;20935;42.660;23.342;2023-07-29T05:21:26;2.90;;;2.70;;
8048;SDS011;20935;42.660;23.342;2023-07-29T05:24:11;3.00;;;2.72;;
8048;SDS011;20935;42.660;23.342;2023-07-29T05:26:57;3.35;;;3.05;;
8048;SDS011;20935;42.660;23.342;2023-07-29T05:29:42;3.08;;;2.80;;
8048;SDS011;20935;42.660;23.342;2023-07-29T05:32:29;3.42;;;2.50;;
8048;SDS011;20935;42.660;23.342;2023-07-29T05:35:14;2.75;;;2.55;;
8048;SDS011;20935;42.660;23.342;2023-07-29T05:37:59;3.03;;;2.72;;
8048;SDS011;20935;42.660;23.342;2023-07-29T05:40:45;3.63;;;3.33;;
8048;SDS011;20935;42.660;23.342;2023-07-29T05:43:32;3.50;;;2.63;;
8048;SDS011;20935;42.660;23.342;2023-07-29T05:46:18;2.72;;;2.53;;
8048;SDS011;20935;42.660;23.342;2023-07-29T05:49:05;2.80;;;2.60;;
8048;SDS011;20935;42.660;23.342;2023-07-29T05:51:50;2.90;;;2.70;;
8048;SDS011;20935;42.660;23.342;2023-07-29T05:54:36;2.60;;;2.40;;
8048;SDS011;20935;42.660;23.342;2023-07-29T05:57:22;3.03;;;2.83;;
8048;SDS011;20935;42.660;23.342;2023-07-29T06:00:07;3.13;;;2.83;;
8048;SDS011;20935;42.660;23.342;2023-07-29T06:02:54;2.95;;;2.72;;
8048;SDS011;20935;42.660;23.342;2023-07-29T06:05:41;3.03;;;2.72;;
8048;SDS011;20935;42.660;23.342;2023-07-29T06:08:26;3.15;;;2.85;;
8048;SDS011;20935;42.660;23.342;2023-07-29T06:11:12;2.88;;;2.67;;
8048;SDS011;20935;42.660;23.342;2023-07-29T06:13:57;2.92;;;2.63;;
8048;SDS011;20935;42.660;23.342;2023-07-29T06:16:43;2.60;;;2.40;;
8048;SDS011;20935;42.660;23.342;2023-07-29T06:19:28;3.10;;;2.80;;
8048;SDS011;20935;42.660;23.342;2023-07-29T06:22:15;2.97;;;2.67;;
8048;SDS011;20935;42.660;23.342;2023-07-29T06:25:01;2.75;;;2.55;;
8048;SDS011;20935;42.660;23.342;2023-07-29T06:27:46;2.67;;;2.47;;
8048;SDS011;20935;42.660;23.342;2023-07-29T06:30:31;2.78;;;2.58;;
8048;SDS011;20935;42.660;23.342;2023-07-29T06:33:16;2.65;;;2.45;;
8048;SDS011;20935;42.660;23.342;2023-07-29T06:36:02;3.42;;;2.80;;
8048;SDS011;20935;42.660;23.342;2023-07-29T06:38:49;3.08;;;2.60;;
8048;SDS011;20935;42.660;23.342;2023-07-29T06:41:35;2.58;;;2.38;;
8048;SDS011;20935;42.660;23.342;2023-07-29T06:44:20;3.20;;;2.90;;
8048;SDS011;20935;42.660;23.342;2023-07-29T06:47:06;4.10;;;3.20;;
8048;SDS011;20935;42.660;23.342;2023-07-29T06:49:53;3.65;;;2.60;;
8048;SDS011;20935;42.660;23.342;2023-07-29T06:52:38;2.75;;;2.55;;
8048;SDS011;20935;42.660;23.342;2023-07-29T06:55:25;2.75;;;2.55;;
8048;SDS011;20935;42.660;23.342;2023-07-29T06:58:10;2.85;;;2.53;;
8048;SDS011;20935;42.660;23.342;2023-07-29T07:00:56;2.75;;;2.50;;
8048;SDS011;20935;42.660;23.342;2023-07-29T07:03:41;3.30;;;3.00;;
8048;SDS011;20935;42.660;23.342;2023-07-29T07:06:27;2.85;;;2.60;;
8048;SDS011;20935;42.660;23.342;2023-07-29T07:09:12;3.22;;;2.92;;
8048;SDS011;20935;42.660;23.342;2023-07-29T07:11:59;2.88;;;2.67;;
8048;SDS011;20935;42.660;23.342;2023-07-29T07:14:45;2.83;;;2.58;;
8048;SDS011;20935;42.660;23.342;2023-07-29T07:17:30;2.90;;;2.60;;
8048;SDS011;20935;42.660;23.342;2023-07-29T07:20:15;2.92;;;2.70;;
8048;SDS011;20935;42.660;23.342;2023-07-29T07:23:01;3.63;;;2.78;;
8048;SDS011;20935;42.660;23.342;2023-07-29T07:25:47;2.63;;;2.42;;
8048;SDS011;20935;42.660;23.342;2023-07-29T07:28:33;3.20;;;2.90;;
8048;SDS011;20935;42.660;23.342;2023-07-29T07:31:19;2.83;;;2.60;;
8048;SDS011;20935;42.660;23.342;2023-07-29T07:34:04;2.90;;;2.67;;
8048;SDS011;20935;42.660;23.342;2023-07-29T07:36:49;3.47;;;2.70;;
8048;SDS011;20935;42.660;23.342;2023-07-29T07:39:35;2.65;;;2.45;;
8048;SDS011;20935;42.660;23.342;2023-07-29T07:42:20;2.85;;;2.65;;
8048;SDS011;20935;42.660;23.342;2023-07-29T07:45:07;2.88;;;2.67;;
8048;SDS011;20935;42.660;23.342;2023-07-29T07:47:53;3.00;;;2.78;;
8048;SDS011;20935;42.660;23.342;2023-07-29T07:50:38;2.85;;;2.65;;
8048;SDS011;20935;42.660;23.342;2023-07-29T07:53:23;3.35;;;2.97;;
8048;SDS011;20935;42.660;23.342;2023-07-29T07:56:10;2.88;;;2.55;;
8048;SDS011;20935;42.660;23.342;2023-07-29T07:58:55;3.03;;;2.78;;
8048;SDS011;20935;42.660;23.342;2023-07-29T08:01:42;2.85;;;2.63;;
8048;SDS011;20935;42.660;23.342;2023-07-29T08:04:28;3.00;;;2.70;;
8048;SDS011;20935;42.660;23.342;2023-07-29T08:07:13;2.92;;;2.72;;
8048;SDS011;20935;42.660;23.342;2023-07-29T08:09:59;3.17;;;2.90;;
8048;SDS011;20935;42.660;23.342;2023-07-29T08:12:44;3.33;;;3.03;;
8048;SDS011;20935;42.660;23.342;2023-07-29T08:15:30;2.72;;;2.53;;
8048;SDS011;20935;42.660;23.342;2023-07-29T08:18:17;2.67;;;2.47;;
8048;SDS011;20935;42.660;23.342;2023-07-29T08:21:03;3.08;;;2.70;;
8048;SDS011;20935;42.660;23.342;2023-07-29T08:23:49;2.80;;;2.50;;
8048;SDS011;20935;42.660;23.342;2023-07-29T08:26:34;2.55;;;2.35;;
8048;SDS011;20935;42.660;23.342;2023-07-29T08:29:20;2.67;;;2.47;;
8048;SDS011;20935;42.660;23.342;2023-07-29T08:32:05;3.50;;;3.10;;
8048;SDS011;20935;42.660;23.342;2023-07-29T08:34:52;3.03;;;2.83;;
8048;SDS011;20935;42.660;23.342;2023-07-29T08:37:38;2.70;;;2.50;;
8048;SDS011;20935;42.660;23.342;2023-07-29T08:40:24;4.22;;;2.85;;
8048;SDS011;20935;42.660;23.342;2023-07-29T08:43:14;3.30;;;3.00;;
8048;SDS011;20935;42.660;23.342;2023-07-29T08:46:03;3.20;;;2.92;;
8048;SDS011;20935;42.660;23.342;2023-07-29T08:48:50;3.17;;;2.90;;
8048;SDS011;20935;42.660;23.342;2023-07-29T08:51:37;3.20;;;2.92;;
8048;SDS011;20935;42.660;23.342;2023-07-29T08:54:23;3.08;;;2.83;;
8048;SDS011;20935;42.660;23.342;2023-07-29T08:57:09;3.08;;;2.80;;
8048;SDS011;20935;42.660;23.342;2023-07-29T08:59:54;3.30;;;3.00;;
8048;SDS011;20935;42.660;23.342;2023-07-29T09:02:41;3.08;;;2.83;;
8048;SDS011;20935;42.660;23.342;2023-07-29T09:05:26;3.20;;;2.90;;
8048;SDS011;20935;42.660;23.342;2023-07-29T09:08:13;3.30;;;3.00;;
8048;SDS011;20935;42.660;23.342;2023-07-29T09:10:59;3.15;;;2.95;;
8048;SDS011;20935;42.660;23.342;2023-07-29T09:13:45;3.05;;;2.78;;
8048;SDS011;20935;42.660;23.342;2023-07-29T09:16:30;3.15;;;2.88;;
8048;SDS011;20935;42.660;23.342;2023-07-29T09:19:16;3.10;;;2.90;;
8048;SDS011;20935;42.660;23.342;2023-07-29T09:22:02;3.08;;;2.75;;
8048;SDS011;20935;42.660;23.342;2023-07-29T09:24:49;3.08;;;2.88;;
8048;SDS011;20935;42.660;23.342;2023-07-29T09:27:35;4.65;;;3.08;;
8048;SDS011;20935;42.660;23.342;2023-07-29T09:30:23;3.40;;;2.80;;
8048;SDS011;20935;42.660;23.342;2023-07-29T09:33:08;3.30;;;2.85;;
8048;SDS011;20935;42.660;23.342;2023-07-29T09:35:54;2.92;;;2.67;;
8048;SDS011;20935;42.660;23.342;2023-07-29T09:38:39;3.50;;;3.20;;
8048;SDS011;20935;42.660;23.342;2023-07-29T09:41:26;3.10;;;2.75;;
8048;SDS011;20935;42.660;23.342;2023-07-29T09:44:14;3.25;;;2.95;;
8048;SDS011;20935;42.660;23.342;2023-07-29T09:47:00;2.80;;;2.60;;
8048;SDS011;20935;42.660;23.342;2023-07-29T09:49:45;3.13;;;2.80;;
8048;SDS011;20935;42.660;23.342;2023-07-29T09:52:31;2.92;;;2.53;;
8048;SDS011;20935;42.660;23.342;2023-07-29T09:55:17;3.20;;;2.90;;
8048;SDS011;20935;42.660;23.342;2023-07-29T09:58:04;2.72;;;2.53;;
8048;SDS011;20935;42.660;23.342;2023-07-29T10:00:52;3.10;;;2.90;;
8048;SDS011;20935;42.660;23.342;2023-07-29T10:03:37;3.47;;;3.03;;
8048;SDS011;20935;42.660;23.342;2023-07-29T10:06:23;3.10;;;2.90;;
8048;SDS011;20935;42.660;23.342;2023-07-29T10:09:10;3.10;;;2.90;;
8048;SDS011;20935;42.660;23.342;2023-07-29T10:11:56;2.92;;;2.72;;
8048;SDS011;20935;42.660;23.342;2023-07-29T10:14:44;2.70;;;2.50;;
8048;SDS011;20935;42.660;23.342;2023-07-29T10:20:19;2.95;;;2.70;;
8048;SDS011;20935;42.660;23.342;2023-07-29T10:23:05;4.82;;;2.75;;
8048;SDS011;20935;42.660;23.342;2023-07-29T10:25:54;3.10;;;2.80;;
8048;SDS011;20935;42.660;23.342;2023-07-29T10:28:47;3.13;;;2.80;;
8048;SDS011;20935;42.660;23.342;2023-07-29T10:31:34;3.67;;;2.47;;
8048;SDS011;20935;42.660;23.342;2023-07-29T10:34:22;2.50;;;2.30;;
8048;SDS011;20935;42.660;23.342;2023-07-29T10:37:09;2.78;;;2.50;;
8048;SDS011;20935;42.660;23.342;2023-07-29T10:39:55;3.17;;;2.88;;
8048;SDS011;20935;42.660;23.342;2023-07-29T10:42:58;2.97;;;2.70;;
8048;SDS011;20935;42.660;23.342;2023-07-29T10:45:45;3.20;;;2.90;;
8048;SDS011;20935;42.660;23.342;2023-07-29T10:48:41;2.63;;;2.42;;
8048;SDS011;20935;42.660;23.342;2023-07-29T10:51:28;3.50;;;3.20;;
8048;SDS011;20935;42.660;23.342;2023-07-29T10:54:16;2.65;;;2.45;;
8048;SDS011;20935;42.660;23.342;2023-07-29T10:57:02;3.17;;;2.75;;
8048;SDS011;20935;42.660;23.342;2023-07-29T10:59:53;3.05;;;2.83;;
8048;SDS011;20935;42.660;23.342;2023-07-29T11:02:40;3.10;;;2.90;;
8048;SDS011;20935;42.660;23.342;2023-07-29T11:05:27;3.55;;;2.65;;
8048;SDS011;20935;42.660;23.342;2023-07-29T11:08:27;2.85;;;2.50;;
8048;SDS011;20935;42.660;23.342;2023-07-29T11:11:14;2.72;;;2.53;;
8048;SDS011;20935;42.660;23.342;2023-07-29T11:14:00;2.78;;;2.58;;
8048;SDS011;20935;42.660;23.342;2023-07-29T11:16:45;2.47;;;2.28;;
8048;SDS011;20935;42.660;23.342;2023-07-29T11:19:30;3.28;;;2.83;;
8048;SDS011;20935;42.660;23.342;2023-07-29T11:22:17;3.03;;;2.72;;
8048;SDS011;20935;42.660;23.342;2023-07-29T11:25:03;2.53;;;2.30;;
8048;SDS011;20935;42.660;23.342;2023-07-29T11:27:50;2.90;;;2.60;;
8048;SDS011;20935;42.660;23.342;2023-07-29T11:30:38;2.90;;;2.67;;
8048;SDS011;20935;42.660;23.342;2023-07-29T11:33:25;2.80;;;2.60;;
8048;SDS011;20935;42.660;23.342;2023-07-29T11:36:18;3.15;;;2.60;;
8048;SDS011;20935;42.660;23.342;2023-07-29T11:39:10;2.60;;;2.40;;
8048;SDS011;20935;42.660;23.342;2023-07-29T11:41:55;2.80;;;2.60;;
8048;SDS011;20935;42.660;23.342;2023-07-29T11:44:41;2.92;;;2.58;;
8048;SDS011;20935;42.660;23.342;2023-07-29T11:47:26;2.50;;;2.30;;
8048;SDS011;20935;42.660;23.342;2023-07-29T11:50:12;2.78;;;2.58;;
8048;SDS011;20935;42.660;23.342;2023-07-29T11:52:59;2.80;;;2.60;;
8048;SDS011;20935;42.660;23.342;2023-07-29T11:55:46;2.80;;;2.60;;
8048;SDS011;20935;42.660;23.342;2023-07-29T11:58:35;2.90;;;2.40;;
8048;SDS011;20935;42.660;23.342;2023-07-29T12:01:22;2.55;;;2.35;;
8048;SDS011;20935;42.660;23.342;2023-07-29T12:04:07;2.47;;;2.28;;
8048;SDS011;20935;42.660;23.342;2023-07-29T12:06:53;2.67;;;2.47;;
8048;SDS011;20935;42.660;23.342;2023-07-29T12:09:39;2.65;;;2.45;;
8048;SDS011;20935;42.660;23.342;2023-07-29T12:12:26;2.70;;;2.50;;
8048;SDS011;20935;42.660;23.342;2023-07-29T12:15:11;2.75;;;2.55;;
8048;SDS011;20935;42.660;23.342;2023-07-29T12:17:57;2.25;;;2.05;;
8048;SDS011;20935;42.660;23.342;2023-07-29T12:20:43;2.50;;;2.30;;
8048;SDS011;20935;42.660;23.342;2023-07-29T12:23:29;2.80;;;2.60;;
8048;SDS011;20935;42.660;23.342;2023-07-29T12:26:15;2.63;;;2.42;;
8048;SDS011;20935;42.660;23.342;2023-07-29T12:29:10;2.83;;;2.58;;
8048;SDS011;20935;42.660;23.342;2023-07-29T12:31:57;2.80;;;2.60;;
8048;SDS011;20935;42.660;23.342;2023-07-29T12:34:44;2.50;;;2.30;;
8048;SDS011;20935;42.660;23.342;2023-07-29T12:37:32;2.70;;;2.50;;
8048;SDS011;20935;42.660;23.342;2023-07-29T12:40:21;2.95;;;2.65;;
8048;SDS011;20935;42.660;23.342;2023-07-29T12:43:07;2.60;;;2.40;;
8048;SDS011;20935;42.660;23.342;2023-07-29T12:45:54;2.83;;;2.63;;
8048;SDS011;20935;42.660;23.342;2023-07-29T12:48:41;2.85;;;2.63;;
8048;SDS011;20935;42.660;23.342;2023-07-29T12:51:26;2.60;;;2.40;;
8048;SDS011;20935;42.660;23.342;2023-07-29T12:54:12;2.60;;;2.40;;
8048;SDS011;20935;42.660;23.342;2023-07-29T12:56:57;2.60;;;2.40;;
8048;SDS011;20935;42.660;23.342;2023-07-29T12:59:43;2.42;;;2.22;;
8048;SDS011;20935;42.660;23.342;2023-07-29T13:02:29;2.83;;;2.63;;
8048;SDS011;20935;42.660;23.342;2023-07-29T13:05:15;3.08;;;2.40;;
8048;SDS011;20935;42.660;23.342;2023-07-29T13:08:02;2.78;;;2.55;;
8048;SDS011;20935;42.660;23.342;2023-07-29T13:10:47;2.45;;;2.25;;
8048;SDS011;20935;42.660;23.342;2023-07-29T13:13:33;2.30;;;2.20;;
8048;SDS011;20935;42.660;23.342;2023-07-29T13:16:18;2.72;;;2.50;;
8048;SDS011;20935;42.660;23.342;2023-07-29T13:19:05;2.58;;;2.38;;
8048;SDS011;20935;42.660;23.342;2023-07-29T13:21:51;4.50;;;3.05;;
8048;SDS011;20935;42.660;23.342;2023-07-29T13:24:36;3.38;;;3.08;;
8048;SDS011;20935;42.660;23.342;2023-07-29T13:27:22;2.60;;;2.40;;
8048;SDS011;20935;42.660;23.342;2023-07-29T13:30:08;2.58;;;2.38;;
8048;SDS011;20935;42.660;23.342;2023-07-29T13:32:54;2.60;;;2.40;;
8048;SDS011;20935;42.660;23.342;2023-07-29T13:35:41;2.53;;;2.33;;
8048;SDS011;20935;42.660;23.342;2023-07-29T13:38:26;4.35;;;2.75;;
8048;SDS011;20935;42.660;23.342;2023-07-29T13:41:12;2.97;;;2.60;;
8048;SDS011;20935;42.660;23.342;2023-07-29T13:43:57;2.83;;;2.63;;
8048;SDS011;20935;42.660;23.342;2023-07-29T13:46:43;3.25;;;2.95;;
8048;SDS011;20935;42.660;23.342;2023-07-29T13:49:28;2.90;;;2.70;;
8048;SDS011;20935;42.660;23.342;2023-07-29T13:52:15;2.60;;;2.40;;
8048;SDS011;20935;42.660;23.342;2023-07-29T13:55:01;3.00;;;2.63;;
8048;SDS011;20935;42.660;23.342;2023-07-29T13:57:46;2.45;;;2.25;;
8048;SDS011;20935;42.660;23.342;2023-07-29T14:00:31;3.10;;;2.80;;
8048;SDS011;20935;42.660;23.342;2023-07-29T14:03:17;2.42;;;2.20;;
8048;SDS011;20935;42.660;23.342;2023-07-29T14:06:03;2.45;;;2.25;;
8048;SDS011;20935;42.660;23.342;2023-07-29T14:08:49;2.83;;;2.58;;
8048;SDS011;20935;42.660;23.342;2023-07-29T14:11:35;2.70;;;2.50;;
8048;SDS011;20935;42.660;23.342;2023-07-29T14:14:20;2.70;;;2.50;;
8048;SDS011;20935;42.660;23.342;2023-07-29T14:17:06;2.60;;;2.40;;
8048;SDS011;20935;42.660;23.342;2023-07-29T14:19:52;2.92;;;2.53;;
8048;SDS011;20935;42.660;23.342;2023-07-29T14:22:37;2.55;;;2.30;;
8048;SDS011;20935;42.660;23.342;2023-07-29T14:25:24;2.72;;;2.47;;
8048;SDS011;20935;42.660;23.342;2023-07-29T14:28:10;2.60;;;2.40;;
8048;SDS011;20935;42.660;23.342;2023-07-29T14:30:55;2.60;;;2.40;;
8048;SDS011;20935;42.660;23.342;2023-07-29T14:33:41;3.50;;;2.65;;
8048;SDS011;20935;42.660;23.342;2023-07-29T14:36:26;2.35;;;2.10;;
8048;SDS011;20935;42.660;23.342;2023-07-29T14:39:12;2.85;;;2.65;;
8048;SDS011;20935;42.660;23.342;2023-07-29T14:41:58;2.58;;;2.38;;
8048;SDS011;20935;42.660;23.342;2023-07-29T14:44:44;2.60;;;2.40;;
8048;SDS011;20935;42.660;23.342;2023-07-29T14:47:29;2.65;;;2.45;;
8048;SDS011;20935;42.660;23.342;2023-07-29T14:50:18;2.60;;;2.40;;
8048;SDS011;20935;42.660;23.342;2023-07-29T14:53:03;2.70;;;2.50;;
8048;SDS011;20935;42.660;23.342;2023-07-29T14:55:49;2.30;;;2.10;;
8048;SDS011;20935;42.660;23.342;2023-07-29T14:58:35;2.58;;;2.38;;
8048;SDS011;20935;42.660;23.342;2023-07-29T15:01:21;2.40;;;2.20;;
8048;SDS011;20935;42.660;23.342;2023-07-29T15:04:06;3.25;;;2.40;;
8048;SDS011;20935;42.660;23.342;2023-07-29T15:06:52;2.60;;;2.40;;
8048;SDS011;20935;42.660;23.342;2023-07-29T15:09:37;2.30;;;2.20;;
8048;SDS011;20935;42.660;23.342;2023-07-29T15:12:23;2.50;;;2.30;;
8048;SDS011;20935;42.660;23.342;2023-07-29T15:15:10;2.72;;;2.53;;
8048;SDS011;20935;42.660;23.342;2023-07-29T15:17:56;2.85;;;2.65;;
8048;SDS011;20935;42.660;23.342;2023-07-29T15:20:43;2.35;;;2.15;;
8048;SDS011;20935;42.660;23.342;2023-07-29T15:23:29;2.40;;;2.20;;
8048;SDS011;20935;42.660;23.342;2023-07-29T15:26:14;2.25;;;2.13;;
8048;SDS011;20935;42.660;23.342;2023-07-29T15:29:00;2.20;;;2.10;;
8048;SDS011;20935;42.660;23.342;2023-07-29T15:31:47;2.42;;;2.22;;
8048;SDS011;20935;42.660;23.342;2023-07-29T15:34:33;2.47;;;2.28;;
8048;SDS011;20935;42.660;23.342;2023-07-29T15:37:19;2.35;;;2.15;;
8048;SDS011;20935;42.660;23.342;2023-07-29T15:40:05;2.38;;;2.17;;
8048;SDS011;20935;42.660;23.342;2023-07-29T15:42:51;2.20;;;2.10;;
8048;SDS011;20935;42.660;23.342;2023-07-29T15:45:36;2.47;;;2.28;;
8048;SDS011;20935;42.660;23.342;2023-07-29T15:48:23;2.47;;;2.28;;
8048;SDS011;20935;42.660;23.342;2023-07-29T15:51:09;2.60;;;2.40;;
8048;SDS011;20935;42.660;23.342;2023-07-29T15:53:54;2.35;;;2.15;;
8048;SDS011;20935;42.660;23.342;2023-07-29T15:56:39;2.00;;;1.90;;
8048;SDS011;20935;42.660;23.342;2023-07-29T15:59:25;4.05;;;2.53;;
8048;SDS011;20935;42.660;23.342;2023-07-29T16:02:10;2.10;;;2.00;;
8048;SDS011;20935;42.660;23.342;2023-07-29T16:04:57;2.50;;;2.30;;
8048;SDS011;20935;42.660;23.342;2023-07-29T16:07:43;2.20;;;2.10;;
8048;SDS011;20935;42.660;23.342;2023-07-29T16:10:28;2.50;;;2.30;;
8048;SDS011;20935;42.660;23.342;2023-07-29T16:13:14;2.05;;;1.95;;
8048;SDS011;20935;42.660;23.342;2023-07-29T16:16:01;2.13;;;2.00;;
8048;SDS011;20935;42.660;23.342;2023-07-29T16:18:46;2.45;;;2.25;;
8048;SDS011;20935;42.660;23.342;2023-07-29T16:21:33;2.08;;;1.98;;
8048;SDS011;20935;42.660;23.342;2023-07-29T16:24:19;2.40;;;2.20;;
8048;SDS011;20935;42.660;23.342;2023-07-29T16:27:05;2.20;;;2.00;;
8048;SDS011;20935;42.660;23.342;2023-07-29T16:29:51;2.30;;;2.10;;
8048;SDS011;20935;42.660;23.342;2023-07-29T16:32:36;2.40;;;2.20;;
8048;SDS011;20935;42.660;23.342;2023-07-29T16:35:22;2.20;;;2.03;;
8048;SDS011;20935;42.660;23.342;2023-07-29T16:38:09;2.40;;;2.20;;
8048;SDS011;20935;42.660;23.342;2023-07-29T16:40:55;2.10;;;2.00;;
8048;SDS011;20935;42.660;23.342;2023-07-29T16:43:40;2.30;;;2.10;;
8048;SDS011;20935;42.660;23.342;2023-07-29T16:46:26;2.55;;;2.10;;